sensor_id;sensor_type;location;lat;lon;timestamp;pressure;altitude;pressure_sealevel;temperature;humidity
51313;BME280;37397;53.226;10.400;2023-04-05T00:01:52;102157.72;;;3.89;57.00
51313;BME280;37397;53.226;10.400;2023-04-05T00:04:19;102146.00;;;3.80;56.75
51313;BME280;37397;53.226;10.400;2023-04-05T00:06:47;102158.53;;;3.86;56.95
51313;BME280;37397;53.226;10.400;2023-04-05T00:09:19;102147.22;;;3.79;57.14
51313;BME280;37397;53.226;10.400;2023-04-05T00:11:46;102147.22;;;3.79;57.11
51313;BME280;37397;53.226;10.400;2023-04-05T00:14:13;102150.06;;;3.79;57.10
51313;BME280;37397;53.226;10.400;2023-04-05T00:16:40;102151.66;;;3.76;57.26
51313;BME280;37397;53.226;10.400;2023-04-05T00:19:06;102151.66;;;3.73;57.17
51313;BME280;37397;53.226;10.400;2023-04-05T00:21:33;102137.94;;;3.68;57.03
51313;BME280;37397;53.226;10.400;2023-04-05T00:23:59;102146.00;;;3.65;57.22
51313;BME280;37397;53.226;10.400;2023-04-05T00:26:26;102145.19;;;3.69;57.07
51313;BME280;37397;53.226;10.400;2023-04-05T00:28:55;102124.19;;;3.48;57.13
51313;BME280;37397;53.226;10.400;2023-04-05T00:31:22;102156.88;;;3.63;57.06
51313;BME280;37397;53.226;10.400;2023-04-05T00:33:49;102164.16;;;3.64;57.32
51313;BME280;37397;53.226;10.400;2023-04-05T00:36:18;102154.06;;;3.60;57.42
51313;BME280;37397;53.226;10.400;2023-04-05T00:38:46;102158.91;;;3.59;57.30
51313;BME280;37397;53.226;10.400;2023-04-05T00:41:13;102148.41;;;3.56;57.05
51313;BME280;37397;53.226;10.400;2023-04-05T00:43:40;102159.69;;;3.56;57.03
51313;BME280;37397;53.226;10.400;2023-04-05T00:46:07;102162.13;;;3.54;57.34
51313;BME280;37397;53.226;10.400;2023-04-05T00:48:34;102155.66;;;3.50;57.18
51313;BME280;37397;53.226;10.400;2023-04-05T00:51:01;102152.41;;;3.48;57.11
51313;BME280;37397;53.226;10.400;2023-04-05T00:53:28;102151.59;;;3.44;57.33
51313;BME280;37397;53.226;10.400;2023-04-05T00:55:55;102159.66;;;3.45;57.23
51313;BME280;37397;53.226;10.400;2023-04-05T00:58:22;102149.16;;;3.39;57.09
51313;BME280;37397;53.226;10.400;2023-04-05T01:01:16;102149.97;;;3.43;57.18
51313;BME280;37397;53.226;10.400;2023-04-05T01:03:52;102140.69;;;3.35;57.44
51313;BME280;37397;53.226;10.400;2023-04-05T01:12:00;102139.47;;;3.29;57.41
51313;BME280;37397;53.226;10.400;2023-04-05T01:14:28;102138.63;;;3.21;57.36
51313;BME280;37397;53.226;10.400;2023-04-05T01:16:54;102145.50;;;3.24;57.58
51313;BME280;37397;53.226;10.400;2023-04-05T01:19:28;102132.97;;;3.21;57.43
51313;BME280;37397;53.226;10.400;2023-04-05T01:30:29;102130.56;;;3.16;57.30
51313;BME280;37397;53.226;10.400;2023-04-05T01:33:13;102130.56;;;3.13;57.49
51313;BME280;37397;53.226;10.400;2023-04-05T01:35:50;102130.16;;;3.14;57.41
51313;BME280;37397;53.226;10.400;2023-04-05T01:38:21;102129.72;;;3.12;57.64
51313;BME280;37397;53.226;10.400;2023-04-05T01:40:50;102126.50;;;3.10;57.62
51313;BME280;37397;53.226;10.400;2023-04-05T01:43:18;102123.28;;;3.08;57.47
51313;BME280;37397;53.226;10.400;2023-04-05T01:45:45;102124.06;;;3.08;57.66
51313;BME280;37397;53.226;10.400;2023-04-05T01:48:12;102114.81;;;3.04;57.65
51313;BME280;37397;53.226;10.400;2023-04-05T01:50:39;102120.84;;;3.03;57.69
51313;BME280;37397;53.226;10.400;2023-04-05T01:53:07;102111.16;;;3.04;57.71
51313;BME280;37397;53.226;10.400;2023-04-05T01:55:34;102104.72;;;3.00;57.38
51313;BME280;37397;53.226;10.400;2023-04-05T01:58:00;102087.75;;;2.89;57.70
51313;BME280;37397;53.226;10.400;2023-04-05T02:00:27;102090.19;;;2.94;57.60
51313;BME280;37397;53.226;10.400;2023-04-05T02:02:53;102092.22;;;2.97;57.50
51313;BME280;37397;53.226;10.400;2023-04-05T02:05:20;102093.41;;;2.92;57.65
51313;BME280;37397;53.226;10.400;2023-04-05T02:07:47;102086.16;;;2.91;57.54
51313;BME280;37397;53.226;10.400;2023-04-05T02:10:13;102089.38;;;2.94;57.72
51313;BME280;37397;53.226;10.400;2023-04-05T02:12:41;102093.78;;;2.91;57.50
51313;BME280;37397;53.226;10.400;2023-04-05T02:15:08;102081.31;;;2.88;57.46
51313;BME280;37397;53.226;10.400;2023-04-05T02:17:34;102082.09;;;2.89;57.59
51313;BME280;37397;53.226;10.400;2023-04-05T02:20:08;102071.63;;;2.82;57.47
51313;BME280;37397;53.226;10.400;2023-04-05T02:22:35;102069.19;;;2.84;57.69
51313;BME280;37397;53.226;10.400;2023-04-05T02:25:03;102072.03;;;2.84;57.66
51313;BME280;37397;53.226;10.400;2023-04-05T02:27:30;102074.44;;;2.79;57.92
51313;BME280;37397;53.226;10.400;2023-04-05T02:29:57;102069.19;;;2.77;57.74
51313;BME280;37397;53.226;10.400;2023-04-05T02:32:23;102058.66;;;2.67;57.57
51313;BME280;37397;53.226;10.400;2023-04-05T02:34:50;102067.56;;;2.72;57.66
51313;BME280;37397;53.226;10.400;2023-04-05T02:37:21;102072.38;;;2.72;57.65
51313;BME280;37397;53.226;10.400;2023-04-05T02:39:48;102073.19;;;2.72;57.82
51313;BME280;37397;53.226;10.400;2023-04-05T02:42:14;102065.13;;;2.71;57.81
51313;BME280;37397;53.226;10.400;2023-04-05T02:44:42;102064.28;;;2.67;57.61
51313;BME280;37397;53.226;10.400;2023-04-05T02:47:12;102072.34;;;2.68;57.72
51313;BME280;37397;53.226;10.400;2023-04-05T02:49:43;102058.25;;;2.65;57.85
51313;BME280;37397;53.226;10.400;2023-04-05T02:52:09;102059.44;;;2.60;57.77
51313;BME280;37397;53.226;10.400;2023-04-05T02:54:36;102057.84;;;2.63;57.69
51313;BME280;37397;53.226;10.400;2023-04-05T02:57:03;102061.03;;;2.58;57.85
51313;BME280;37397;53.226;10.400;2023-04-05T02:59:39;102071.50;;;2.61;57.99
51313;BME280;37397;53.226;10.400;2023-04-05T03:02:07;102064.22;;;2.52;57.77
51313;BME280;37397;53.226;10.400;2023-04-05T03:04:34;102070.69;;;2.57;58.02
51313;BME280;37397;53.226;10.400;2023-04-05T03:07:02;102066.25;;;2.55;57.76
51313;BME280;37397;53.226;10.400;2023-04-05T03:09:33;102066.63;;;2.50;57.80
51313;BME280;37397;53.226;10.400;2023-04-05T03:12:04;102064.22;;;2.49;57.71
51313;BME280;37397;53.226;10.400;2023-04-05T03:14:35;102048.06;;;2.39;57.80
51313;BME280;37397;53.226;10.400;2023-04-05T03:17:02;102066.63;;;2.50;57.82
51313;BME280;37397;53.226;10.400;2023-04-05T03:19:34;102050.50;;;2.44;57.91
51313;BME280;37397;53.226;10.400;2023-04-05T03:22:15;102056.53;;;2.46;58.01
51313;BME280;37397;53.226;10.400;2023-04-05T03:24:41;102034.31;;;2.26;57.81
51313;BME280;37397;53.226;10.400;2023-04-05T03:27:10;102059.34;;;2.42;57.80
51313;BME280;37397;53.226;10.400;2023-04-05T03:29:51;102059.34;;;2.39;57.84
51313;BME280;37397;53.226;10.400;2023-04-05T03:32:17;102058.13;;;2.40;57.87
51313;BME280;37397;53.226;10.400;2023-04-05T03:34:50;102058.09;;;2.36;57.93
51313;BME280;37397;53.226;10.400;2023-04-05T03:37:18;102061.72;;;2.33;58.06
51313;BME280;37397;53.226;10.400;2023-04-05T03:39:55;102053.66;;;2.35;57.94
51313;BME280;37397;53.226;10.400;2023-04-05T03:42:22;102057.69;;;2.34;58.03
51313;BME280;37397;53.226;10.400;2023-04-05T03:44:51;102056.06;;;2.33;57.86
51313;BME280;37397;53.226;10.400;2023-04-05T03:47:18;102062.50;;;2.30;57.87
51313;BME280;37397;53.226;10.400;2023-04-05T03:49:45;102057.69;;;2.30;57.75
51313;BME280;37397;53.226;10.400;2023-04-05T03:52:11;102049.63;;;2.29;57.90
51313;BME280;37397;53.226;10.400;2023-04-05T03:54:43;102056.00;;;2.22;58.00
51313;BME280;37397;53.226;10.400;2023-04-05T03:57:10;102052.38;;;2.22;57.88
51313;BME280;37397;53.226;10.400;2023-04-05T03:59:39;102039.47;;;2.17;57.81
51313;BME280;37397;53.226;10.400;2023-04-05T04:02:06;102058.41;;;2.16;58.06
51313;BME280;37397;53.226;10.400;2023-04-05T04:04:33;102063.66;;;2.22;58.09
51313;BME280;37397;53.226;10.400;2023-04-05T04:06:59;102059.63;;;2.19;57.87
51313;BME280;37397;53.226;10.400;2023-04-05T04:09:28;102034.16;;;2.01;58.06
51313;BME280;37397;53.226;10.400;2023-04-05T04:12:04;102030.53;;;2.00;58.29
51313;BME280;37397;53.226;10.400;2023-04-05T04:14:34;102063.22;;;2.16;58.10
51313;BME280;37397;53.226;10.400;2023-04-05T04:17:34;102051.50;;;2.07;58.04
51313;BME280;37397;53.226;10.400;2023-04-05T04:20:24;102062.78;;;2.10;58.09
51313;BME280;37397;53.226;10.400;2023-04-05T04:22:59;102054.31;;;2.07;58.17
51313;BME280;37397;53.226;10.400;2023-04-05T04:25:44;102055.50;;;2.06;58.04
51313;BME280;37397;53.226;10.400;2023-04-05T04:28:30;102057.50;;;2.05;58.03
51313;BME280;37397;53.226;10.400;2023-04-05T04:31:18;102067.16;;;2.04;58.23
51313;BME280;37397;53.226;10.400;2023-04-05T04:34:05;102061.50;;;2.00;58.07
51313;BME280;37397;53.226;10.400;2023-04-05T04:36:49;102063.09;;;1.98;58.22
51313;BME280;37397;53.226;10.400;2023-04-05T04:39:57;102061.47;;;1.93;58.39
51313;BME280;37397;53.226;10.400;2023-04-05T04:42:57;102067.09;;;1.93;58.23
51313;BME280;37397;53.226;10.400;2023-04-05T04:45:39;102050.13;;;1.86;58.55
51313;BME280;37397;53.226;10.400;2023-04-05T04:48:24;102058.22;;;1.91;58.31
51313;BME280;37397;53.226;10.400;2023-04-05T04:51:09;102062.63;;;1.89;58.14
51313;BME280;37397;53.226;10.400;2023-04-05T04:53:36;102056.56;;;1.87;58.18
51313;BME280;37397;53.226;10.400;2023-04-05T04:56:06;102067.03;;;1.90;58.21
51313;BME280;37397;53.226;10.400;2023-04-05T04:58:33;102066.22;;;1.86;58.25
51313;BME280;37397;53.226;10.400;2023-04-05T05:01:07;102054.13;;;1.81;58.36
51313;BME280;37397;53.226;10.400;2023-04-05T05:03:35;102057.38;;;1.84;58.45
51313;BME280;37397;53.226;10.400;2023-04-05T05:06:04;102061.78;;;1.85;58.32
51313;BME280;37397;53.226;10.400;2023-04-05T05:08:33;102053.28;;;1.77;58.41
51313;BME280;37397;53.226;10.400;2023-04-05T05:11:00;102058.53;;;1.79;58.44
51313;BME280;37397;53.226;10.400;2023-04-05T05:13:26;102060.56;;;1.82;58.37
51313;BME280;37397;53.226;10.400;2023-04-05T05:15:52;102055.72;;;1.79;58.43
51313;BME280;37397;53.226;10.400;2023-04-05T05:18:22;102062.56;;;1.81;58.50
51313;BME280;37397;53.226;10.400;2023-04-05T05:20:49;102049.63;;;1.73;58.39
51313;BME280;37397;53.226;10.400;2023-04-05T05:23:17;102046.81;;;1.73;58.47
51313;BME280;37397;53.226;10.400;2023-04-05T05:25:43;102050.09;;;1.79;58.61
51313;BME280;37397;53.226;10.400;2023-04-05T05:28:12;102043.59;;;1.71;58.55
51313;BME280;37397;53.226;10.400;2023-04-05T05:30:38;102044.38;;;1.72;58.38
51313;BME280;37397;53.226;10.400;2023-04-05T05:33:05;102037.56;;;1.69;58.58
51313;BME280;37397;53.226;10.400;2023-04-05T05:35:32;102043.63;;;1.75;58.62
51313;BME280;37397;53.226;10.400;2023-04-05T05:37:58;102046.81;;;1.73;58.64
51313;BME280;37397;53.226;10.400;2023-04-05T05:40:26;102048.44;;;1.74;58.69
51313;BME280;37397;53.226;10.400;2023-04-05T05:42:53;102045.19;;;1.72;58.62
51313;BME280;37397;53.226;10.400;2023-04-05T05:45:19;102035.56;;;1.73;58.63
51313;BME280;37397;53.226;10.400;2023-04-05T05:47:46;102045.25;;;1.76;58.75
51313;BME280;37397;53.226;10.400;2023-04-05T05:50:12;102044.41;;;1.75;58.61
51313;BME280;37397;53.226;10.400;2023-04-05T05:52:39;102040.81;;;1.75;58.79
51313;BME280;37397;53.226;10.400;2023-04-05T05:55:06;102033.16;;;1.75;58.84
51313;BME280;37397;53.226;10.400;2023-04-05T05:57:32;102039.56;;;1.72;58.72
51313;BME280;37397;53.226;10.400;2023-04-05T05:59:58;102046.84;;;1.77;58.94
51313;BME280;37397;53.226;10.400;2023-04-05T06:02:25;102044.84;;;1.77;58.61
51313;BME280;37397;53.226;10.400;2023-04-05T06:04:52;102041.66;;;1.79;58.84
51313;BME280;37397;53.226;10.400;2023-04-05T06:07:20;102038.84;;;1.79;59.00
51313;BME280;37397;53.226;10.400;2023-04-05T06:09:47;102046.44;;;1.78;59.23
51313;BME280;37397;53.226;10.400;2023-04-05T06:12:13;102038.78;;;1.75;59.04
51313;BME280;37397;53.226;10.400;2023-04-05T06:14:40;102045.66;;;1.78;59.00
51313;BME280;37397;53.226;10.400;2023-04-05T06:17:06;102048.50;;;1.81;59.22
51313;BME280;37397;53.226;10.400;2023-04-05T06:19:32;102053.31;;;1.81;59.02
51313;BME280;37397;53.226;10.400;2023-04-05T06:21:59;102054.13;;;1.81;59.12
51313;BME280;37397;53.226;10.400;2023-04-05T06:24:26;102042.44;;;1.79;58.97
51313;BME280;37397;53.226;10.400;2023-04-05T06:26:57;102037.63;;;1.80;59.11
51313;BME280;37397;53.226;10.400;2023-04-05T06:29:24;102047.72;;;1.85;59.04
51313;BME280;37397;53.226;10.400;2023-04-05T06:31:51;102050.13;;;1.82;59.12
51313;BME280;37397;53.226;10.400;2023-04-05T06:34:18;102049.34;;;1.86;59.22
51313;BME280;37397;53.226;10.400;2023-04-05T06:36:44;102054.97;;;1.86;59.43
51313;BME280;37397;53.226;10.400;2023-04-05T06:39:11;102035.25;;;1.82;59.34
51313;BME280;37397;53.226;10.400;2023-04-05T06:41:38;102044.91;;;1.88;59.37
51313;BME280;37397;53.226;10.400;2023-04-05T06:44:05;102040.91;;;1.86;59.41
51313;BME280;37397;53.226;10.400;2023-04-05T06:46:32;102030.81;;;1.85;59.36
51313;BME280;37397;53.226;10.400;2023-04-05T06:48:58;102035.66;;;1.88;59.30
51313;BME280;37397;53.226;10.400;2023-04-05T06:51:29;102033.25;;;1.90;59.29
51313;BME280;37397;53.226;10.400;2023-04-05T06:53:56;102030.84;;;1.88;59.66
51313;BME280;37397;53.226;10.400;2023-04-05T06:56:22;102017.59;;;1.89;59.44
51313;BME280;37397;53.226;10.400;2023-04-05T06:58:49;102019.19;;;1.90;59.44
51313;BME280;37397;53.226;10.400;2023-04-05T07:01:16;102024.47;;;1.95;59.36
51313;BME280;37397;53.226;10.400;2023-04-05T07:03:43;102020.44;;;1.96;59.56
51313;BME280;37397;53.226;10.400;2023-04-05T07:06:09;102016.44;;;1.97;59.57
51313;BME280;37397;53.226;10.400;2023-04-05T07:08:37;102008.41;;;1.99;59.57
51313;BME280;37397;53.226;10.400;2023-04-05T07:11:03;102013.25;;;2.02;59.62
51313;BME280;37397;53.226;10.400;2023-04-05T07:13:31;102007.63;;;2.06;59.78
51313;BME280;37397;53.226;10.400;2023-04-05T07:16:01;102002.00;;;2.06;59.88
51313;BME280;37397;53.226;10.400;2023-04-05T07:18:28;102011.69;;;2.08;59.63
51313;BME280;37397;53.226;10.400;2023-04-05T07:20:56;102011.69;;;2.12;59.89
51313;BME280;37397;53.226;10.400;2023-04-05T07:23:27;102006.88;;;2.12;59.90
51313;BME280;37397;53.226;10.400;2023-04-05T07:25:54;102009.28;;;2.14;59.76
51313;BME280;37397;53.226;10.400;2023-04-05T07:28:21;102013.72;;;2.15;59.95
51313;BME280;37397;53.226;10.400;2023-04-05T07:30:48;102016.56;;;2.22;59.87
51313;BME280;37397;53.226;10.400;2023-04-05T07:33:14;102014.16;;;2.21;59.94
51313;BME280;37397;53.226;10.400;2023-04-05T07:35:41;102008.50;;;2.21;59.79
51313;BME280;37397;53.226;10.400;2023-04-05T07:38:08;102017.03;;;2.28;59.92
51313;BME280;37397;53.226;10.400;2023-04-05T07:40:36;102015.03;;;2.32;59.84
51313;BME280;37397;53.226;10.400;2023-04-05T07:43:03;102019.47;;;2.36;60.02
51313;BME280;37397;53.226;10.400;2023-04-05T07:45:29;102001.38;;;2.34;60.09
51313;BME280;37397;53.226;10.400;2023-04-05T07:47:56;102003.00;;;2.39;59.96
51313;BME280;37397;53.226;10.400;2023-04-05T07:50:22;102014.28;;;2.46;60.03
51313;BME280;37397;53.226;10.400;2023-04-05T07:52:49;102010.69;;;2.49;60.03
51313;BME280;37397;53.226;10.400;2023-04-05T07:55:15;102013.50;;;2.52;59.95
51313;BME280;37397;53.226;10.400;2023-04-05T07:57:42;102015.13;;;2.57;60.17
51313;BME280;37397;53.226;10.400;2023-04-05T08:00:09;102002.28;;;2.60;60.27
51313;BME280;37397;53.226;10.400;2023-04-05T08:02:38;102008.72;;;2.64;60.09
51313;BME280;37397;53.226;10.400;2023-04-05T08:05:05;102006.34;;;2.69;60.11
51313;BME280;37397;53.226;10.400;2023-04-05T08:07:32;102003.53;;;2.73;60.01
51313;BME280;37397;53.226;10.400;2023-04-05T08:09:58;101996.69;;;2.74;60.03
51313;BME280;37397;53.226;10.400;2023-04-05T08:12:26;101998.31;;;2.79;60.29
51313;BME280;37397;53.226;10.400;2023-04-05T08:14:55;101999.50;;;2.85;59.96
51313;BME280;37397;53.226;10.400;2023-04-05T08:17:21;102003.56;;;2.87;59.93
51313;BME280;37397;53.226;10.400;2023-04-05T08:19:48;102003.16;;;2.92;59.93
51313;BME280;37397;53.226;10.400;2023-04-05T08:22:18;101983.81;;;2.91;59.92
51313;BME280;37397;53.226;10.400;2023-04-05T08:24:44;101999.16;;;3.01;59.93
51313;BME280;37397;53.226;10.400;2023-04-05T08:27:11;101999.59;;;3.03;59.97
51313;BME280;37397;53.226;10.400;2023-04-05T08:29:37;101991.13;;;3.06;60.00
51313;BME280;37397;53.226;10.400;2023-04-05T08:32:04;101984.25;;;3.07;59.68
51313;BME280;37397;53.226;10.400;2023-04-05T08:34:31;101990.72;;;3.12;59.54
51313;BME280;37397;53.226;10.400;2023-04-05T08:36:58;101994.38;;;3.16;59.53
51313;BME280;37397;53.226;10.400;2023-04-05T08:39:25;101985.06;;;3.19;59.39
51313;BME280;37397;53.226;10.400;2023-04-05T08:41:59;101986.69;;;3.23;59.08
51313;BME280;37397;53.226;10.400;2023-04-05T08:44:30;101999.19;;;3.29;59.12
51313;BME280;37397;53.226;10.400;2023-04-05T08:46:58;101991.97;;;3.32;59.41
51313;BME280;37397;53.226;10.400;2023-04-05T08:49:25;101980.66;;;3.36;58.96
51313;BME280;37397;53.226;10.400;2023-04-05T08:51:53;101973.41;;;3.35;59.08
51313;BME280;37397;53.226;10.400;2023-04-05T08:54:20;101977.44;;;3.41;58.88
51313;BME280;37397;53.226;10.400;2023-04-05T08:56:47;101976.25;;;3.42;58.80
51313;BME280;37397;53.226;10.400;2023-04-05T08:59:15;101982.28;;;3.47;58.95
51313;BME280;37397;53.226;10.400;2023-04-05T09:01:44;101978.25;;;3.52;58.52
51313;BME280;37397;53.226;10.400;2023-04-05T09:04:17;101986.28;;;3.57;58.50
51313;BME280;37397;53.226;10.400;2023-04-05T09:06:44;101979.84;;;3.60;58.27
51313;BME280;37397;53.226;10.400;2023-04-05T09:09:11;101976.63;;;3.65;57.98
51313;BME280;37397;53.226;10.400;2023-04-05T09:11:39;101957.25;;;3.60;57.74
51313;BME280;37397;53.226;10.400;2023-04-05T09:14:06;101973.78;;;3.73;57.55
51313;BME280;37397;53.226;10.400;2023-04-05T09:16:35;101966.13;;;3.73;57.69
51313;BME280;37397;53.226;10.400;2023-04-05T09:19:02;101973.38;;;3.78;57.60
51313;BME280;37397;53.226;10.400;2023-04-05T09:21:29;101962.47;;;3.80;57.36
51313;BME280;37397;53.226;10.400;2023-04-05T09:24:35;101968.94;;;3.84;57.23
51313;BME280;37397;53.226;10.400;2023-04-05T09:29:36;101959.66;;;3.87;57.50
51313;BME280;37397;53.226;10.400;2023-04-05T09:32:06;101970.53;;;3.92;57.46
51313;BME280;37397;53.226;10.400;2023-04-05T09:34:36;101968.91;;;3.98;57.44
51313;BME280;37397;53.226;10.400;2023-04-05T09:37:13;101960.44;;;3.98;57.03
51313;BME280;37397;53.226;10.400;2023-04-05T09:39:41;101981.41;;;4.05;57.25
51313;BME280;37397;53.226;10.400;2023-04-05T09:42:10;101966.47;;;4.08;57.04
51313;BME280;37397;53.226;10.400;2023-04-05T09:44:59;101969.69;;;4.10;57.10
51313;BME280;37397;53.226;10.400;2023-04-05T09:47:32;101969.25;;;4.15;57.17
51313;BME280;37397;53.226;10.400;2023-04-05T09:52:41;101969.25;;;4.22;57.13
51313;BME280;37397;53.226;10.400;2023-04-05T09:55:08;101968.44;;;4.25;56.77
51313;BME280;37397;53.226;10.400;2023-04-05T09:57:37;101967.59;;;4.25;56.59
51313;BME280;37397;53.226;10.400;2023-04-05T10:00:05;101961.97;;;4.28;56.88
51313;BME280;37397;53.226;10.400;2023-04-05T10:02:39;101962.75;;;4.32;56.81
51313;BME280;37397;53.226;10.400;2023-04-05T10:05:07;101959.91;;;4.32;56.69
51313;BME280;37397;53.226;10.400;2023-04-05T10:07:39;101951.81;;;4.38;56.88
51313;BME280;37397;53.226;10.400;2023-04-05T10:10:07;101958.66;;;4.41;56.68
51313;BME280;37397;53.226;10.400;2023-04-05T10:12:37;101951.41;;;4.43;56.56
51313;BME280;37397;53.226;10.400;2023-04-05T10:15:04;101942.09;;;4.43;56.38
51313;BME280;37397;53.226;10.400;2023-04-05T10:17:38;101946.94;;;4.46;56.37
51313;BME280;37397;53.226;10.400;2023-04-05T10:20:24;101940.09;;;4.43;56.11
51313;BME280;37397;53.226;10.400;2023-04-05T10:28:13;101933.56;;;4.53;56.16
51313;BME280;37397;53.226;10.400;2023-04-05T10:30:46;101935.16;;;4.58;56.53
51313;BME280;37397;53.226;10.400;2023-04-05T10:33:43;101922.22;;;4.57;55.54
51313;BME280;37397;53.226;10.400;2023-04-05T10:36:41;101916.56;;;4.64;55.30
51313;BME280;37397;53.226;10.400;2023-04-05T10:39:11;101916.53;;;4.68;55.66
51313;BME280;37397;53.226;10.400;2023-04-05T10:41:42;101920.56;;;4.70;55.72
51313;BME280;37397;53.226;10.400;2023-04-05T10:44:13;101919.72;;;4.73;55.70
51313;BME280;37397;53.226;10.400;2023-04-05T10:46:54;101906.00;;;4.72;55.59
51313;BME280;37397;53.226;10.400;2023-04-05T10:49:38;101906.75;;;4.80;55.43
51313;BME280;37397;53.226;10.400;2023-04-05T10:52:05;101908.38;;;4.81;55.93
51313;BME280;37397;53.226;10.400;2023-04-05T10:54:33;101906.75;;;4.83;56.03
51313;BME280;37397;53.226;10.400;2023-04-05T10:57:02;101894.22;;;4.81;56.09
51313;BME280;37397;53.226;10.400;2023-04-05T10:59:33;101907.47;;;4.91;55.73
51313;BME280;37397;53.226;10.400;2023-04-05T11:02:01;101893.72;;;4.93;55.92
51313;BME280;37397;53.226;10.400;2023-04-05T11:04:27;101894.53;;;4.93;55.59
51313;BME280;37397;53.226;10.400;2023-04-05T11:10:05;101877.50;;;5.01;55.47
51313;BME280;37397;53.226;10.400;2023-04-05T11:18:04;101878.22;;;5.12;54.45
51313;BME280;37397;53.226;10.400;2023-04-05T11:20:47;101888.69;;;5.15;54.52
51313;BME280;37397;53.226;10.400;2023-04-05T11:23:15;101876.94;;;5.17;55.00
51313;BME280;37397;53.226;10.400;2023-04-05T11:26:05;101878.94;;;5.23;54.64
51313;BME280;37397;53.226;10.400;2023-04-05T11:28:36;101876.06;;;5.27;55.15
51313;BME280;37397;53.226;10.400;2023-04-05T11:31:14;101876.50;;;5.25;55.16
51313;BME280;37397;53.226;10.400;2023-04-05T11:36:35;101873.16;;;5.34;55.03
51313;BME280;37397;53.226;10.400;2023-04-05T11:39:21;101863.91;;;5.30;55.00
51313;BME280;37397;53.226;10.400;2023-04-05T11:42:01;101866.63;;;5.41;55.24
51313;BME280;37397;53.226;10.400;2023-04-05T11:44:38;101854.91;;;5.39;55.29
51313;BME280;37397;53.226;10.400;2023-04-05T11:47:05;101860.53;;;5.46;55.46
51313;BME280;37397;53.226;10.400;2023-04-05T11:49:32;101863.69;;;5.52;55.59
51313;BME280;37397;53.226;10.400;2023-04-05T11:52:09;101852.75;;;5.54;55.60
51313;BME280;37397;53.226;10.400;2023-04-05T11:54:37;101837.38;;;5.55;55.51
51313;BME280;37397;53.226;10.400;2023-04-05T11:57:04;101842.13;;;5.61;55.32
51313;BME280;37397;53.226;10.400;2023-04-05T11:59:35;101837.31;;;5.62;55.36
51313;BME280;37397;53.226;10.400;2023-04-05T12:02:03;101842.88;;;5.69;55.68
51313;BME280;37397;53.226;10.400;2023-04-05T12:04:35;101836.00;;;5.70;55.39
51313;BME280;37397;53.226;10.400;2023-04-05T12:07:12;101827.03;;;5.75;55.24
51313;BME280;37397;53.226;10.400;2023-04-05T12:10:11;101822.16;;;5.76;54.81
51313;BME280;37397;53.226;10.400;2023-04-05T12:12:42;101813.59;;;5.83;55.00
51313;BME280;37397;53.226;10.400;2023-04-05T12:15:11;101798.66;;;5.79;55.29
51313;BME280;37397;53.226;10.400;2023-04-05T12:17:46;101815.50;;;5.90;55.42
51313;BME280;37397;53.226;10.400;2023-04-05T12:20:17;101814.28;;;5.91;55.16
51313;BME280;37397;53.226;10.400;2023-04-05T12:22:46;101802.16;;;5.90;55.25
51313;BME280;37397;53.226;10.400;2023-04-05T12:25:16;101811.81;;;5.96;55.28
51313;BME280;37397;53.226;10.400;2023-04-05T12:27:44;101803.63;;;6.02;55.33
51313;BME280;37397;53.226;10.400;2023-04-05T12:30:15;101795.53;;;6.04;55.21
51313;BME280;37397;53.226;10.400;2023-04-05T12:35:30;101803.91;;;6.11;54.67
51313;BME280;37397;53.226;10.400;2023-04-05T12:38:01;101795.78;;;6.13;55.18
51313;BME280;37397;53.226;10.400;2023-04-05T12:40:28;101797.75;;;6.16;55.44
51313;BME280;37397;53.226;10.400;2023-04-05T12:43:06;101795.28;;;6.22;55.13
51313;BME280;37397;53.226;10.400;2023-04-05T12:45:34;101794.84;;;6.24;54.98
51313;BME280;37397;53.226;10.400;2023-04-05T12:48:11;101787.06;;;6.28;55.16
51313;BME280;37397;53.226;10.400;2023-04-05T12:50:46;101785.44;;;6.30;54.94
51313;BME280;37397;53.226;10.400;2023-04-05T12:53:18;101786.63;;;6.33;54.78
51313;BME280;37397;53.226;10.400;2023-04-05T12:55:50;101786.13;;;6.38;54.83
51313;BME280;37397;53.226;10.400;2023-04-05T12:58:19;101795.78;;;6.41;55.03
51313;BME280;37397;53.226;10.400;2023-04-05T13:00:46;101778.84;;;6.37;54.63
51313;BME280;37397;53.226;10.400;2023-04-05T13:03:19;101777.13;;;6.43;54.60
51313;BME280;37397;53.226;10.400;2023-04-05T13:05:46;101773.09;;;6.41;54.97
51313;BME280;37397;53.226;10.400;2023-04-05T13:08:14;101779.53;;;6.45;54.99
51313;BME280;37397;53.226;10.400;2023-04-05T13:10:44;101773.00;;;6.48;54.54
51313;BME280;37397;53.226;10.400;2023-04-05T13:13:12;101768.06;;;6.52;54.44
51313;BME280;37397;53.226;10.400;2023-04-05T13:15:39;101760.75;;;6.54;55.02
51313;BME280;37397;53.226;10.400;2023-04-05T13:18:06;101761.09;;;6.56;55.17
51313;BME280;37397;53.226;10.400;2023-04-05T13:20:33;101755.41;;;6.60;55.01
51313;BME280;37397;53.226;10.400;2023-04-05T13:22:59;101752.94;;;6.62;55.11
51313;BME280;37397;53.226;10.400;2023-04-05T13:25:26;101749.66;;;6.64;55.12
51313;BME280;37397;53.226;10.400;2023-04-05T13:27:53;101744.00;;;6.64;55.23
51313;BME280;37397;53.226;10.400;2023-04-05T13:30:19;101745.91;;;6.70;55.02
51313;BME280;37397;53.226;10.400;2023-04-05T13:32:46;101741.00;;;6.71;55.17
51313;BME280;37397;53.226;10.400;2023-04-05T13:35:13;101745.81;;;6.74;55.04
51313;BME280;37397;53.226;10.400;2023-04-05T13:37:39;101739.28;;;6.77;54.84
51313;BME280;37397;53.226;10.400;2023-04-05T13:40:06;101732.31;;;6.82;54.66
51313;BME280;37397;53.226;10.400;2023-04-05T13:42:33;101736.78;;;6.83;54.58
51313;BME280;37397;53.226;10.400;2023-04-05T13:44:59;101736.34;;;6.84;54.81